Amstetten, Austria

11:58 AM CET on February 10, 2016 (GMT +0100)
DBSolutions, Winklarn, Austria | | Change Station
CLOSE
Current Station
Personal Weather Station
Location: Winklarn, NIEDERöSTERREICH
Elevation: 1050 ft
Nearby Weather Stations

Elev 1050 ft 48.09 °N, 14.85 °E | Updated 18 seconds ago

Mostly Cloudy
Mostly Cloudy
36.9 °F
Feels Like 34 °F
N
3.4
Wind Variable Wind from NW
Gusts 4.9 mph

Today
High -- | Low -- °F
--% Chance of Precip.
Yesterday
High -- | Low -- °F
Precip. -- in
Pressure 29.44 in
Visibility 6.2 miles
Clouds Few 1000 ft
Scattered Clouds 1200 ft
Mostly Cloudy 2300 ft
Windchill 34 °F
Dew Point 32 °F
Humidity 82%
Rainfall 0.32 in
Snow Depth Not available.
7:16 AM 5:13 PM
Waxing Crescent, 5% visible
METAR LOWL 101050Z 27016KT 9999 FEW010 SCT012 BKN023 03/01 Q0997 TEMPO BKN012
Pressure 29.44 in
Visibility 6.2 miles
Clouds Few 1000 ft
Scattered Clouds 1200 ft
Mostly Cloudy 2300 ft
Windchill 34 °F
Dew Point 32 °F
Humidity 82%
Rainfall 0.32 in
Snow Depth Not available.
7:16 AM 5:13 PM
Waxing Crescent, 5% visible
METAR LOWL 101050Z 27016KT 9999 FEW010 SCT012 BKN023 03/01 Q0997 TEMPO BKN012

10-Day Weather Forecast

Almanac

Astronomy

Feb. 10, 2016 Rise Set
Actual Time
Civil Twilight
Nautical Twilight
Astronomical Twilight
Moon
Length of Visible Light
Length of Day
Tomorrow will be .
, % of the Moon is Illuminated

Today's Extremes

Country Highs Country Lows

Community

WunderPhotos

Upload Photos

1,891,830 photos uploaded!

WunderBlog® & News

Nearby

Air Quality

  Air Quality AQ Index Pollutant
Not available.

Snow Depth

Station Depth Elevation

Earthquake Activity

City Distance Mag. Time & Date
Minimum magnitude displayed is 2.5.

Coastal Water Temperatures

Place Temperature

Stations

Nearby Weather Stations

Station Location Temp. Windchill Dew Point Humidity Wind Precip. Elev Updated Type